Time;durP1;ratioP1;P1;durP2;ratioP2;P2;SDS_P1;SDS_P2;PMS_P1;PMS_P2;Temp;Humidity;BMP_temperature;BMP_pressure;BME280_temperature;BME280_humidity;BME280_pressure;Samples;Min_cycle;Max_cycle;Signal;HPM_P1;HPM_P2
2021/07/02 11:11:47;;;;;;;;;;;;;;;18.55;68.05;101513.38;5023885;27;12534;-58
2021/07/02 11:14:12;;;;;;;;;;;;;;;18.54;68.96;101504.41;5032030;28;1591;-58
2021/07/02 11:16:37;;;;;;;;;;;;;;;18.56;68.35;101504.28;5031991;28;2116;-59
2021/07/02 11:19:02;;;;;;;;;;;;;;;18.58;68.59;101502.31;5032523;28;1604;-59
2021/07/02 11:21:28;;;;;;;;;;;;;;;18.59;68.60;101502.22;5032819;28;893;-59
2021/07/02 11:23:53;;;;;;;;;;;;;;;18.61;68.13;101504.78;5032624;28;1846;-59
2021/07/02 11:26:18;;;;;;;;;;;;;;;18.63;68.06;101500.09;5032290;28;858;-59
2021/07/02 11:28:46;;;;;;;;;;;;;;;18.64;68.34;101496.38;5032638;28;1766;-58
2021/07/02 11:31:13;;;;;;;;;;;;;;;18.65;68.08;101508.88;5032116;28;1910;-58
2021/07/02 11:33:38;;;;;;;;;;;;;;;18.66;67.97;101511.44;5032336;28;1884;-58
2021/07/02 11:36:03;;;;;;;;;;;;;;;18.68;67.40;101505.91;5032127;28;858;-58
2021/07/02 11:38:29;;;;;;;;;;;;;;;18.70;67.74;101507.50;5032240;28;862;-58
2021/07/02 11:40:54;;;;;;;;;;;;;;;18.69;67.86;101505.78;5032040;28;938;-58
2021/07/02 11:43:19;;;;;;;;;;;;;;;18.72;67.97;101500.13;5031598;28;1751;-57
2021/07/02 11:45:44;;;;;;;;;;;;;;;18.73;67.70;101490.19;5032188;28;930;-57
2021/07/02 11:48:09;;;;;;;;;;;;;;;18.71;67.45;101497.56;5032118;28;821;-58
2021/07/02 11:50:34;;;;;;;;;;;;;;;18.72;68.01;101494.72;5031987;28;1955;-59
2021/07/02 11:52:59;;;;;;;;;;;;;;;18.74;68.03;101502.69;5031767;28;1717;-58
2021/07/02 11:55:24;;;;;;;;;;;;;;;18.79;67.20;101500.44;5031968;28;1052;-58
2021/07/02 11:57:49;;;;;;;;;;;;;;;18.78;67.72;101498.72;5032006;28;1678;-58
2021/07/02 12:00:14;;;;;;;;;;;;;;;18.78;67.87;101498.72;5031888;28;937;-58
2021/07/02 12:02:39;;;;;;;;;;;;;;;18.78;67.52;101501.44;5031148;28;1853;-59
2021/07/02 12:05:05;;;;;;;;;;;;;;;18.78;67.17;101498.72;5031851;28;1048;-58
2021/07/02 12:07:30;;;;;;;;;;;;;;;18.79;66.98;101500.44;5031690;28;818;-58
2021/07/02 12:09:55;;;;;;;;;;;;;;;18.87;66.89;101497.03;5031511;28;1914;-58
2021/07/02 12:12:20;;;;;;;;;;;;;;;18.90;66.77;101485.97;5031398;28;1786;-58
2021/07/02 12:14:45;;;;;;;;;;;;;;;18.91;67.19;101487.69;5031595;28;869;-58
2021/07/02 12:17:10;;;;;;;;;;;;;;;18.95;67.02;101484.56;5030239;28;997;-59
2021/07/02 12:19:36;;;;;;;;;;;;;;;18.98;67.13;101489.69;5031383;28;915;-58
2021/07/02 12:22:04;;;;;;;;;;;;;;;19.07;66.04;101490.69;5024213;28;1591;-58
2021/07/02 12:24:29;;;;;;;;;;;;;;;19.08;66.21;101487.00;5018008;28;1881;-58
2021/07/02 12:26:54;;;;;;;;;;;;;;;19.04;66.36;101483.72;5016562;28;1730;-58
2021/07/02 12:29:19;;;;;;;;;;;;;;;19.05;65.86;101481.88;5018011;28;997;-58
2021/07/02 12:31:44;;;;;;;;;;;;;;;19.06;66.48;101479.03;5017207;28;1949;-58
2021/07/02 12:34:09;;;;;;;;;;;;;;;19.03;66.16;101475.75;5017167;28;1750;-58
2021/07/02 12:36:34;;;;;;;;;;;;;;;19.07;65.81;101471.78;5017460;28;1803;-58
2021/07/02 12:38:59;;;;;;;;;;;;;;;19.11;66.09;101466.97;5017387;28;1637;-58
2021/07/02 12:41:24;;;;;;;;;;;;;;;19.10;65.76;101485.03;5017282;28;976;-58
2021/07/02 12:43:49;;;;;;;;;;;;;;;19.10;66.26;101466.13;5017458;28;1981;-58
2021/07/02 12:46:15;;;;;;;;;;;;;;;19.13;65.84;101468.53;5017962;28;1064;-57
2021/07/02 12:48:41;;;;;;;;;;;;;;;19.15;65.80;101468.41;5017738;28;845;-58
2021/07/02 12:51:06;;;;;;;;;;;;;;;19.16;65.82;101470.13;5017669;28;1902;-58
2021/07/02 12:56:15;;;;;;;;;;;;;;;19.20;65.78;101460.72;5013689;28;1864;-59
2021/07/02 12:58:40;;;;;;;;;;;;;;;19.29;65.24;101462.59;5014137;28;1560;-58
2021/07/02 13:01:05;;;;;;;;;;;;;;;19.30;65.12;101473.25;5016693;28;1700;-59
2021/07/02 13:03:30;;;;;;;;;;;;;;;19.30;65.10;101467.84;5017519;28;2230;-58
2021/07/02 13:05:55;;;;;;;;;;;;;;;19.39;65.60;101467.00;5016994;28;1712;-57
2021/07/02 13:08:21;;;;;;;;;;;;;;;19.43;64.75;101475.69;5016641;28;1803;-56
2021/07/02 13:10:47;;;;;;;;;;;;;;;19.40;64.72;101462.44;5016089;28;1995;-57
2021/07/02 13:13:12;;;;;;;;;;;;;;;19.43;65.16;101462.16;5014786;28;1667;-57
2021/07/02 13:15:37;;;;;;;;;;;;;;;19.36;64.49;101463.72;5016795;28;878;-57
2021/07/02 13:18:02;;;;;;;;;;;;;;;19.37;64.45;101460.88;5016951;28;925;-57
2021/07/02 13:20:27;;;;;;;;;;;;;;;19.40;65.70;101454.31;5016908;28;1056;-57
2021/07/02 13:22:52;;;;;;;;;;;;;;;19.42;64.07;101457.75;5017321;28;909;-57
2021/07/02 13:25:17;;;;;;;;;;;;;;;19.45;64.11;101454.75;5016960;28;1778;-57
2021/07/02 13:27:42;;;;;;;;;;;;;;;19.46;64.03;101451.06;5015615;28;1926;-56
2021/07/02 13:30:07;;;;;;;;;;;;;;;19.50;64.17;101452.53;5016552;28;1961;-57
2021/07/02 13:32:33;;;;;;;;;;;;;;;19.54;63.57;101444.97;5016557;28;1749;-58
2021/07/02 13:34:58;;;;;;;;;;;;;;;19.60;64.10;101449.81;5016011;28;1660;-58
2021/07/02 13:37:23;;;;;;;;;;;;;;;19.58;63.99;101451.78;5016100;28;1501;-57
2021/07/02 13:39:48;;;;;;;;;;;;;;;19.63;64.57;101449.53;5017078;28;1000;-57
2021/07/02 13:42:13;;;;;;;;;;;;;;;19.64;63.48;101453.94;5016785;28;1059;-57
2021/07/02 13:44:38;;;;;;;;;;;;;;;19.68;63.58;101458.94;5016315;28;1456;-56
2021/07/02 13:47:03;;;;;;;;;;;;;;;19.70;63.98;101451.53;5017047;28;791;-57
2021/07/02 13:49:28;;;;;;;;;;;;;;;19.62;63.55;101461.34;5016453;28;1898;-57
2021/07/02 13:51:53;;;;;;;;;;;;;;;19.58;62.57;101468.03;5016822;28;1001;-57
2021/07/02 13:54:20;;;;;;;;;;;;;;;19.57;62.74;101467.16;5016631;28;1635;-57
2021/07/02 13:56:49;;;;;;;;;;;;;;;19.58;62.48;101468.88;5016243;28;1764;-57
2021/07/02 13:59:14;;;;;;;;;;;;;;;19.60;61.72;101468.75;5016563;28;795;-57
2021/07/02 14:01:39;;;;;;;;;;;;;;;19.63;61.09;101469.31;5016285;28;922;-57
2021/07/02 14:04:04;;;;;;;;;;;;;;;19.61;60.82;101465.88;5016582;28;1475;-57
2021/07/02 14:06:30;;;;;;;;;;;;;;;19.63;61.41;101466.59;5015788;28;1705;-57
2021/07/02 14:08:55;;;;;;;;;;;;;;;19.65;61.40;101461.91;5016092;28;791;-57
2021/07/02 14:11:20;;;;;;;;;;;;;;;19.64;60.97;101467.47;5015951;28;1894;-57
2021/07/02 14:13:45;;;;;;;;;;;;;;;19.66;61.75;101479.84;5016586;28;800;-57
2021/07/02 14:16:10;;;;;;;;;;;;;;;19.62;60.87;101485.69;5015876;28;1865;-57
2021/07/02 14:18:35;;;;;;;;;;;;;;;19.63;60.58;101477.41;5016309;28;929;-57
2021/07/02 14:21:00;;;;;;;;;;;;;;;19.62;60.30;101480.28;5015506;28;834;-55
2021/07/02 14:23:25;;;;;;;;;;;;;;;19.65;61.82;101482.69;5016225;28;1662;-57
2021/07/02 14:25:50;;;;;;;;;;;;;;;19.65;60.71;101478.13;5015936;28;1746;-57
2021/07/02 14:28:15;;;;;;;;;;;;;;;19.63;60.45;101477.41;5015697;28;1877;-57
2021/07/02 14:30:40;;;;;;;;;;;;;;;19.65;60.86;101480.84;5016046;28;1910;-57
2021/07/02 14:33:06;;;;;;;;;;;;;;;19.71;60.55;101474.84;5015866;28;1618;-57
2021/07/02 14:35:31;;;;;;;;;;;;;;;19.75;61.98;101476.28;5015872;28;1063;-57
2021/07/02 14:37:56;;;;;;;;;;;;;;;19.81;61.19;101480.25;5015474;28;1993;-57
2021/07/02 14:40:21;;;;;;;;;;;;;;;19.85;61.80;101475.41;5015420;28;941;-57
2021/07/02 14:42:46;;;;;;;;;;;;;;;19.86;60.83;101475.28;5015487;28;1582;-57
2021/07/02 14:45:11;;;;;;;;;;;;;;;19.91;61.15;101478.38;5015393;28;1788;-57
2021/07/02 14:47:36;;;;;;;;;;;;;;;19.95;61.13;101479.81;5015345;28;1776;-57
2021/07/02 14:50:01;;;;;;;;;;;;;;;19.98;62.06;101489.50;5015645;28;1914;-57
2021/07/02 14:52:26;;;;;;;;;;;;;;;19.96;61.49;101489.63;5015436;28;848;-58
2021/07/02 14:54:52;;;;;;;;;;;;;;;19.99;61.23;101496.63;5015130;28;894;-58
2021/07/02 14:57:17;;;;;;;;;;;;;;;20.01;60.73;101489.22;5015578;28;1844;-57
2021/07/02 14:59:43;;;;;;;;;;;;;;;20.03;60.79;101490.78;5014289;28;1692;-56
2021/07/02 15:02:08;;;;;;;;;;;;;;;20.07;61.05;101500.28;5015139;28;853;-57
2021/07/02 15:04:33;;;;;;;;;;;;;;;20.09;60.43;101494.72;5015503;28;1808;-57
2021/07/02 15:06:58;;;;;;;;;;;;;;;20.12;60.59;101497.16;5014954;28;1239;-57
2021/07/02 15:09:24;;;;;;;;;;;;;;;20.12;60.99;101505.28;5015297;28;1008;-57
2021/07/02 15:11:49;;;;;;;;;;;;;;;20.14;60.57;101505.13;5015872;28;1953;-57
2021/07/02 15:14:14;;;;;;;;;;;;;;;20.15;60.67;101507.69;5015485;28;1890;-59
2021/07/02 15:16:39;;;;;;;;;;;;;;;20.18;60.00;101504.69;5015669;28;1053;-58
2021/07/02 15:19:04;;;;;;;;;;;;;;;20.16;60.32;101514.81;5015003;28;1313;-57
2021/07/02 15:21:29;;;;;;;;;;;;;;;20.15;61.35;101514.94;5015624;28;815;-58
2021/07/02 15:23:54;;;;;;;;;;;;;;;20.14;60.19;101527.63;5015223;28;1804;-58
2021/07/02 15:26:19;;;;;;;;;;;;;;;20.14;60.14;101519.50;5012572;28;2254;-55
2021/07/02 15:28:44;;;;;;;;;;;;;;;20.10;60.09;101526.19;5007539;28;1580;-58
2021/07/02 15:31:09;;;;;;;;;;;;;;;20.07;60.63;101511.09;5001102;28;1948;-57
2021/07/02 15:33:36;;;;;;;;;;;;;;;20.10;60.16;101510.81;5014921;28;1420;-58
2021/07/02 15:36:03;;;;;;;;;;;;;;;20.12;59.81;101507.97;5014793;28;1709;-58
2021/07/02 15:38:28;;;;;;;;;;;;;;;20.09;60.53;101519.94;5015478;28;1454;-57
2021/07/02 15:40:53;;;;;;;;;;;;;;;20.13;60.38;101517.81;5014963;28;1674;-57
2021/07/02 15:43:18;;;;;;;;;;;;;;;20.17;60.46;101513.81;5005375;28;1630;-57
2021/07/02 15:45:44;;;;;;;;;;;;;;;20.26;60.06;101509.38;5012329;28;1740;-57
2021/07/02 15:48:09;;;;;;;;;;;;;;;20.29;60.21;101512.63;5014362;28;1644;-57
2021/07/02 15:50:34;;;;;;;;;;;;;;;20.31;59.96;101509.78;5011117;28;2365;-57
2021/07/02 15:52:59;;;;;;;;;;;;;;;20.34;61.12;101510.34;4998359;28;1811;-56
2021/07/02 15:55:24;;;;;;;;;;;;;;;20.37;60.72;101514.66;4999116;28;1747;-56
2021/07/02 15:57:49;;;;;;;;;;;;;;;20.48;60.89;101519.88;5001869;28;1716;-58
2021/07/02 16:00:14;;;;;;;;;;;;;;;20.53;61.98;101517.59;4998889;28;2061;-58
2021/07/02 16:02:39;;;;;;;;;;;;;;;20.53;60.79;101514.03;5005344;28;1720;-58
2021/07/02 16:05:04;;;;;;;;;;;;;;;20.58;61.67;101519.88;5011768;28;1881;-58
2021/07/02 16:07:30;;;;;;;;;;;;;;;20.63;62.21;101512.13;5007382;28;1851;-57
2021/07/02 16:09:55;;;;;;;;;;;;;;;20.66;61.97;101509.13;4998676;28;2303;-58
2021/07/02 16:12:20;;;;;;;;;;;;;;;20.73;62.37;101502.13;4999238;28;2070;-57
2021/07/02 16:14:45;;;;;;;;;;;;;;;20.72;62.92;101508.53;5004542;28;1942;-57
2021/07/02 16:17:10;;;;;;;;;;;;;;;20.75;62.40;101506.41;5012402;28;1701;-58
2021/07/02 16:19:35;;;;;;;;;;;;;;;20.79;62.57;101512.34;5003746;28;1674;-58
2021/07/02 16:22:00;;;;;;;;;;;;;;;20.85;62.66;101513.63;5004428;28;1932;-57
2021/07/02 16:24:25;;;;;;;;;;;;;;;20.80;63.06;101511.34;5011529;28;1748;-57
2021/07/02 16:26:50;;;;;;;;;;;;;;;20.83;62.67;101513.75;5004358;28;1743;-56
2021/07/02 16:29:15;;;;;;;;;;;;;;;20.88;62.40;101511.47;5010213;28;1890;-57
2021/07/02 16:31:40;;;;;;;;;;;;;;;20.91;62.81;101505.75;5008336;28;1976;-59
2021/07/02 16:34:06;;;;;;;;;;;;;;;20.94;62.59;101516.28;5005221;28;1888;-57
2021/07/02 16:36:31;;;;;;;;;;;;;;;20.93;61.82;101503.75;5011384;28;1583;-57
2021/07/02 16:38:56;;;;;;;;;;;;;;;20.97;61.81;101502.41;5004107;28;1801;-57
2021/07/02 16:41:21;;;;;;;;;;;;;;;21.03;61.98;101499.13;5000536;28;1624;-58
2021/07/02 16:43:48;;;;;;;;;;;;;;;21.03;62.30;101503.69;5002657;28;1761;-57
2021/07/02 16:46:13;;;;;;;;;;;;;;;21.08;62.25;101506.78;5011078;28;1867;-58
2021/07/02 16:48:38;;;;;;;;;;;;;;;21.07;62.30;101495.09;5011616;28;1638;-57
2021/07/02 16:51:04;;;;;;;;;;;;;;;21.10;61.60;101499.38;5009956;28;1898;-57
2021/07/02 16:53:29;;;;;;;;;;;;;;;21.08;61.91;101499.53;5006593;28;1747;-57
2021/07/02 16:55:54;;;;;;;;;;;;;;;21.10;61.61;101505.66;4999930;28;1629;-57
2021/07/02 16:58:19;;;;;;;;;;;;;;;21.13;61.97;101499.06;5010154;28;1803;-57
2021/07/02 17:00:44;;;;;;;;;;;;;;;21.11;61.61;101507.34;4998967;28;1698;-58
2021/07/02 17:03:09;;;;;;;;;;;;;;;21.07;62.49;101505.94;4999996;28;1685;-55
2021/07/02 17:05:34;;;;;;;;;;;;;;;21.08;62.36;101506.78;4997830;28;1684;-56
2021/07/02 17:07:59;;;;;;;;;;;;;;;21.08;62.17;101506.78;4998905;28;1824;-57
2021/07/02 17:10:24;;;;;;;;;;;;;;;21.05;61.93;101497.09;4997326;28;1949;-56
2021/07/02 17:12:49;;;;;;;;;;;;;;;21.04;62.59;101492.69;4996588;28;1769;-56
2021/07/02 17:15:14;;;;;;;;;;;;;;;21.03;61.98;101495.53;4997423;28;1838;-58
2021/07/02 17:17:40;;;;;;;;;;;;;;;21.06;62.03;101498.81;4996609;28;1610;-56
2021/07/02 17:20:05;;;;;;;;;;;;;;;21.09;62.51;101497.66;5007496;28;1921;-57
2021/07/02 17:22:30;;;;;;;;;;;;;;;21.13;63.52;101490.94;5000046;28;1900;-57
2021/07/02 17:24:56;;;;;;;;;;;;;;;21.12;62.81;101492.78;4997458;28;2059;-57
2021/07/02 17:27:21;;;;;;;;;;;;;;;21.13;62.64;101494.50;4997166;28;2026;-57
2021/07/02 17:29:46;;;;;;;;;;;;;;;21.15;62.24;101491.63;5010626;28;1989;-58
2021/07/02 17:32:11;;;;;;;;;;;;;;;21.15;62.82;101495.19;5001991;28;1633;-58
2021/07/02 17:34:36;;;;;;;;;;;;;;;21.18;62.77;101487.75;5001488;28;1739;-58
2021/07/02 17:37:01;;;;;;;;;;;;;;;21.20;62.47;101481.22;5004500;28;1721;-58
2021/07/02 17:39:27;;;;;;;;;;;;;;;21.21;62.49;101473.94;5014570;28;1617;-58
2021/07/02 17:41:52;;;;;;;;;;;;;;;21.22;62.30;101476.50;5014953;28;2067;-56
2021/07/02 17:44:17;;;;;;;;;;;;;;;21.23;63.00;101474.63;5013991;28;1646;-57
2021/07/02 17:46:43;;;;;;;;;;;;;;;21.21;62.47;101474.78;4999352;28;1830;-56
2021/07/02 17:49:08;;;;;;;;;;;;;;;21.22;63.12;101475.63;5008937;28;1606;-56
2021/07/02 17:51:33;;;;;;;;;;;;;;;21.23;62.58;101471.91;5008225;28;1898;-55
2021/07/02 17:53:58;;;;;;;;;;;;;;;21.27;62.32;101478.75;5011036;28;1535;-57
2021/07/02 17:56:23;;;;;;;;;;;;;;;21.20;61.89;101469.50;5014604;28;1716;-58
2021/07/02 17:58:48;;;;;;;;;;;;;;;21.13;62.53;101483.66;5005642;28;1833;-59
2021/07/02 18:01:13;;;;;;;;;;;;;;;21.18;61.97;101479.63;5005685;28;1628;-61
2021/07/02 18:03:39;;;;;;;;;;;;;;;21.15;62.25;101481.63;5005234;28;1758;-59
2021/07/02 18:06:04;;;;;;;;;;;;;;;21.15;64.08;101470.78;5022516;28;1769;-57
2021/07/02 18:08:30;;;;;;;;;;;;;;;21.15;62.49;101468.06;5012291;28;1557;-59
2021/07/02 18:10:55;;;;;;;;;;;;;;;21.12;63.05;101467.56;5014044;28;1966;-58
2021/07/02 18:13:20;;;;;;;;;;;;;;;21.11;63.62;101463.97;5015928;28;1869;-57
2021/07/02 18:15:45;;;;;;;;;;;;;;;21.11;62.23;101468.56;5015897;28;1776;-57
2021/07/02 18:18:10;;;;;;;;;;;;;;;21.11;62.83;101469.41;5015723;28;1667;-58
2021/07/02 18:20:35;;;;;;;;;;;;;;;21.12;62.12;101470.25;5013574;28;2059;-58
2021/07/02 18:23:00;;;;;;;;;;;;;;;21.11;61.92;101474.81;5009201;28;1703;-57
2021/07/02 18:25:25;;;;;;;;;;;;;;;21.12;62.58;101476.53;4999119;28;1810;-57
2021/07/02 18:27:50;;;;;;;;;;;;;;;21.14;62.05;101470.94;5007064;28;1811;-57
2021/07/02 18:30:15;;;;;;;;;;;;;;;21.12;62.20;101468.41;5010109;28;1979;-57
2021/07/02 18:32:40;;;;;;;;;;;;;;;21.09;62.36;101476.84;5006594;28;1560;-58
2021/07/02 18:35:06;;;;;;;;;;;;;;;21.08;62.35;101474.28;5002906;28;1639;-59
2021/07/02 18:37:31;;;;;;;;;;;;;;;21.08;61.58;101479.69;5002326;28;1997;-58
2021/07/02 18:39:56;;;;;;;;;;;;;;;21.13;62.26;101472.81;5013437;28;1710;-58
2021/07/02 18:42:21;;;;;;;;;;;;;;;21.13;61.73;101472.81;5008680;28;1905;-58
2021/07/02 18:44:46;;;;;;;;;;;;;;;21.14;62.60;101485.34;4999530;28;1600;-59
2021/07/02 18:47:11;;;;;;;;;;;;;;;21.13;62.77;101485.53;5000406;28;1704;-58
2021/07/02 18:49:36;;;;;;;;;;;;;;;21.11;61.94;101476.69;5000918;28;1794;-57
2021/07/02 18:52:01;;;;;;;;;;;;;;;21.11;61.98;101480.25;5001263;28;1964;-58
2021/07/02 18:54:26;;;;;;;;;;;;;;;21.10;61.71;101483.09;5005893;28;1666;-57
2021/07/02 18:56:51;;;;;;;;;;;;;;;21.10;62.35;101483.09;5014375;28;1711;-58
2021/07/02 18:59:16;;;;;;;;;;;;;;;21.14;62.72;101474.50;5011955;28;1734;-59
2021/07/02 19:01:41;;;;;;;;;;;;;;;21.12;62.13;101471.13;4998885;28;1576;-58
2021/07/02 19:04:07;;;;;;;;;;;;;;;21.09;61.81;101474.13;5002510;28;1740;-58
2021/07/02 19:06:32;;;;;;;;;;;;;;;21.08;62.16;101471.56;4995953;28;1699;-58
2021/07/02 19:08:57;;;;;;;;;;;;;;;21.09;62.01;101476.84;5013857;28;1636;-57
2021/07/02 19:11:22;;;;;;;;;;;;;;;21.02;62.06;101473.00;5012582;28;1914;-58
2021/07/02 19:13:47;;;;;;;;;;;;;;;21.05;62.42;101480.84;5002148;28;1777;-57
2021/07/02 19:16:12;;;;;;;;;;;;;;;21.04;62.14;101476.44;5001211;28;1886;-58
2021/07/02 19:18:37;;;;;;;;;;;;;;;21.06;62.14;101481.69;4996301;28;1849;-58
2021/07/02 19:21:02;;;;;;;;;;;;;;;21.07;62.57;101476.13;4995337;28;1661;-57
2021/07/02 19:23:27;;;;;;;;;;;;;;;21.04;62.93;101481.00;4999064;28;1903;-56
2021/07/02 19:25:52;;;;;;;;;;;;;;;20.97;62.78;101482.59;5007257;28;1762;-59
2021/07/02 19:28:17;;;;;;;;;;;;;;;20.95;62.56;101479.22;5006656;28;1617;-57
2021/07/02 19:30:42;;;;;;;;;;;;;;;20.92;62.91;101485.78;5005215;28;1954;-55
2021/07/02 19:33:08;;;;;;;;;;;;;;;20.91;61.95;101486.78;5009321;28;2049;-57
2021/07/02 19:35:33;;;;;;;;;;;;;;;20.89;62.11;101491.50;5008742;28;1784;-54
2021/07/02 19:37:58;;;;;;;;;;;;;;;20.87;62.35;101488.09;5003245;28;1631;-56
2021/07/02 19:40:24;;;;;;;;;;;;;;;20.89;62.79;101493.34;5007298;28;1881;-55
2021/07/02 19:42:49;;;;;;;;;;;;;;;20.88;62.04;101495.22;5007133;28;1651;-55
2021/07/02 19:45:15;;;;;;;;;;;;;;;20.86;61.66;101496.34;5003470;28;1593;-56
2021/07/02 19:47:40;;;;;;;;;;;;;;;20.83;62.14;101505.63;4998746;28;1721;-57
2021/07/02 19:50:05;;;;;;;;;;;;;;;20.82;61.97;101501.22;4999897;28;1967;-57
2021/07/02 19:52:30;;;;;;;;;;;;;;;20.81;62.31;101504.94;5003597;28;1714;-57
2021/07/02 19:54:55;;;;;;;;;;;;;;;20.80;62.66;101514.06;5003685;28;1838;-55
2021/07/02 19:57:20;;;;;;;;;;;;;;;20.79;62.78;101512.34;5000774;28;1624;-54
2021/07/02 19:59:45;;;;;;;;;;;;;;;20.79;62.34;101517.75;5003168;28;1727;-55
2021/07/02 20:02:10;;;;;;;;;;;;;;;20.78;61.82;101516.09;5002585;28;1643;-53
2021/07/02 20:04:35;;;;;;;;;;;;;;;20.76;62.58;101521.66;5001838;28;1675;-56
2021/07/02 20:07:00;;;;;;;;;;;;;;;20.77;62.73;101519.78;5000711;28;2329;-58
2021/07/02 20:09:25;;;;;;;;;;;;;;;20.76;62.67;101520.78;5000704;28;1604;-57
2021/07/02 20:11:50;;;;;;;;;;;;;;;20.74;62.10;101523.66;5002784;28;1906;-55
2021/07/02 20:14:16;;;;;;;;;;;;;;;20.74;62.30;101517.38;4997025;28;1675;-58
2021/07/02 20:16:41;;;;;;;;;;;;;;;20.69;61.86;101527.81;5002180;28;1798;-57
2021/07/02 20:19:06;;;;;;;;;;;;;;;20.72;63.19;101528.38;4999304;28;1854;-57
2021/07/02 20:21:31;;;;;;;;;;;;;;;20.70;62.28;101527.66;4998082;28;1626;-56
2021/07/02 20:23:56;;;;;;;;;;;;;;;20.69;62.85;101525.94;5003071;28;1852;-57
2021/07/02 20:26:21;;;;;;;;;;;;;;;20.66;62.67;101526.22;4998112;28;1517;-57
2021/07/02 20:28:47;;;;;;;;;;;;;;;20.66;62.15;101530.81;5001695;28;1693;-57
2021/07/02 20:31:13;;;;;;;;;;;;;;;20.65;62.08;101523.69;5003063;28;1962;-58
2021/07/02 20:33:38;;;;;;;;;;;;;;;20.65;63.23;101523.69;5004335;28;1780;-57
2021/07/02 20:36:05;;;;;;;;;;;;;;;20.63;61.57;101520.25;5002189;28;1501;-56
2021/07/02 20:38:30;;;;;;;;;;;;;;;20.61;62.72;101522.25;5002691;28;1335;-58
2021/07/02 20:40:56;;;;;;;;;;;;;;;20.60;62.20;101521.41;4998040;28;1822;-58
2021/07/02 20:43:21;;;;;;;;;;;;;;;20.61;63.03;101523.09;4997890;28;1762;-57
2021/07/02 20:45:46;;;;;;;;;;;;;;;20.61;62.83;101511.41;4999515;28;1596;-57
2021/07/02 20:48:11;;;;;;;;;;;;;;;20.61;63.49;101508.72;4996573;28;1681;-58
2021/07/02 20:50:36;;;;;;;;;;;;;;;20.60;62.67;101512.47;5002653;28;1953;-57
2021/07/02 20:53:01;;;;;;;;;;;;;;;20.58;63.26;101500.91;4999704;28;1324;-56
2021/07/02 20:55:26;;;;;;;;;;;;;;;20.56;63.01;101511.03;5003735;28;1525;-57
2021/07/02 20:57:52;;;;;;;;;;;;;;;20.55;62.40;101509.31;5002762;28;1707;-58
2021/07/02 21:00:17;;;;;;;;;;;;;;;20.55;63.02;101509.31;5001132;28;1704;-57
2021/07/02 21:02:42;;;;;;;;;;;;;;;20.53;62.59;101509.47;5001943;28;1715;-56
2021/07/02 21:05:07;;;;;;;;;;;;;;;20.52;63.44;101510.47;5003604;28;1618;-57
2021/07/02 21:07:32;;;;;;;;;;;;;;;20.52;62.04;101515.88;5007334;28;1464;-57
2021/07/02 21:09:57;;;;;;;;;;;;;;;20.51;62.55;101516.03;5004391;28;1910;-57
2021/07/02 21:12:22;;;;;;;;;;;;;;;20.49;62.88;101515.31;5009959;28;1727;-58
2021/07/02 21:14:47;;;;;;;;;;;;;;;20.49;61.91;101516.19;5009967;28;1682;-58
2021/07/02 21:17:12;;;;;;;;;;;;;;;20.47;63.17;101515.47;5006569;28;1611;-58
2021/07/02 21:19:37;;;;;;;;;;;;;;;20.48;62.65;101519.88;5009344;28;1562;-58
2021/07/02 21:22:02;;;;;;;;;;;;;;;20.48;62.31;101524.44;5006326;28;1642;-56
2021/07/02 21:24:27;;;;;;;;;;;;;;;20.44;62.61;101524.72;5015665;28;1643;-56
2021/07/02 21:26:52;;;;;;;;;;;;;;;20.42;63.47;101524.03;5000615;28;1479;-57
2021/07/02 21:29:18;;;;;;;;;;;;;;;20.41;62.43;101521.50;5016342;28;1894;-58
2021/07/02 21:31:43;;;;;;;;;;;;;;;20.40;62.61;101517.94;5010765;28;1886;-57
2021/07/02 21:34:08;;;;;;;;;;;;;;;20.38;62.53;101516.38;5013643;28;1594;-58
2021/07/02 21:36:33;;;;;;;;;;;;;;;20.36;63.00;101513.81;5005128;28;1753;-58
2021/07/02 21:38:58;;;;;;;;;;;;;;;20.36;62.76;101511.09;5012863;28;1731;-57
2021/07/02 21:41:23;;;;;;;;;;;;;;;20.35;62.74;101519.31;5007479;28;1921;-57
2021/07/02 21:43:48;;;;;;;;;;;;;;;20.36;63.08;101511.09;5009544;28;1977;-57
2021/07/02 21:46:13;;;;;;;;;;;;;;;20.35;62.57;101513.91;5011756;28;1844;-58
2021/07/02 21:48:38;;;;;;;;;;;;;;;20.35;63.08;101516.63;5010244;28;1793;-58
2021/07/02 21:51:03;;;;;;;;;;;;;;;20.32;63.32;101512.34;5005304;28;1961;-56
2021/07/02 21:53:28;;;;;;;;;;;;;;;20.32;62.77;101511.50;4996830;28;1749;-58
2021/07/02 21:55:53;;;;;;;;;;;;;;;20.31;63.57;101505.22;5011852;28;1787;-58
2021/07/02 21:58:19;;;;;;;;;;;;;;;20.30;63.23;101500.81;5000971;28;1733;-58
2021/07/02 22:00:44;;;;;;;;;;;;;;;20.28;62.61;101500.09;5011061;28;1603;-58
2021/07/02 22:03:09;;;;;;;;;;;;;;;20.30;63.58;101500.81;5006581;28;1677;-58
2021/07/02 22:05:34;;;;;;;;;;;;;;;20.30;63.16;101503.53;5007380;28;1750;-56
2021/07/02 22:07:59;;;;;;;;;;;;;;;20.28;63.37;101499.25;4999922;28;1759;-58
2021/07/02 22:10:24;;;;;;;;;;;;;;;20.26;62.55;101502.09;4999331;28;1978;-58
2021/07/02 22:12:49;;;;;;;;;;;;;;;20.25;62.68;101497.69;5007475;28;1424;-58
2021/07/02 22:15:14;;;;;;;;;;;;;;;20.25;62.76;101503.09;5002934;28;1702;-58
2021/07/02 22:17:40;;;;;;;;;;;;;;;20.24;63.08;101501.41;5008343;28;1627;-57
2021/07/02 22:20:05;;;;;;;;;;;;;;;20.23;63.11;101498.84;5007234;28;1723;-58
2021/07/02 22:22:30;;;;;;;;;;;;;;;20.23;62.71;101493.44;5014600;28;1724;-59
2021/07/02 22:24:55;;;;;;;;;;;;;;;20.25;63.44;101496.81;5014649;28;1638;-59
2021/07/02 22:27:20;;;;;;;;;;;;;;;20.23;63.72;101496.16;5015184;28;1623;-58
2021/07/02 22:29:45;;;;;;;;;;;;;;;20.21;63.55;101501.69;5013950;28;1678;-59
2021/07/02 22:32:10;;;;;;;;;;;;;;;20.20;62.70;101505.41;5015158;28;1972;-58
2021/07/02 22:34:35;;;;;;;;;;;;;;;20.18;62.67;101502.00;5015381;28;1617;-58
2021/07/02 22:37:00;;;;;;;;;;;;;;;20.17;62.81;101499.44;5015841;28;1897;-57
2021/07/02 22:39:25;;;;;;;;;;;;;;;20.18;63.11;101493.00;5015225;28;1699;-58
2021/07/02 22:41:51;;;;;;;;;;;;;;;20.19;62.95;101494.72;5015431;28;1705;-58
2021/07/02 22:44:16;;;;;;;;;;;;;;;20.22;63.45;101498.00;5015048;28;1627;-58
2021/07/02 22:46:41;;;;;;;;;;;;;;;20.24;63.50;101492.44;5015202;28;2044;-60
2021/07/02 22:49:06;;;;;;;;;;;;;;;20.25;63.04;101492.25;5015561;28;791;-60
2021/07/02 22:51:31;;;;;;;;;;;;;;;20.25;63.66;101494.97;5015392;28;1898;-60
2021/07/02 22:53:56;;;;;;;;;;;;;;;20.25;63.31;101486.84;5015190;28;848;-59
2021/07/02 22:56:21;;;;;;;;;;;;;;;20.23;64.14;101491.59;5015870;28;1845;-59
2021/07/02 22:58:46;;;;;;;;;;;;;;;20.24;63.44;101487.03;5016007;28;929;-59
2021/07/02 23:01:11;;;;;;;;;;;;;;;20.23;63.37;101491.59;5015225;28;1764;-60
2021/07/02 23:03:36;;;;;;;;;;;;;;;20.23;63.81;101482.63;5015649;28;1013;-59
2021/07/02 23:06:01;;;;;;;;;;;;;;;20.22;62.93;101479.06;5015023;28;1795;-59
2021/07/02 23:08:27;;;;;;;;;;;;;;;20.22;64.12;101487.19;5015448;28;831;-59
2021/07/02 23:10:52;;;;;;;;;;;;;;;20.22;63.84;101484.47;5014966;28;1898;-59
2021/07/02 23:13:17;;;;;;;;;;;;;;;20.21;64.13;101488.16;5015272;28;996;-59
2021/07/02 23:15:42;;;;;;;;;;;;;;;20.21;63.60;101479.19;5014809;28;1783;-59
2021/07/02 23:18:07;;;;;;;;;;;;;;;20.19;63.78;101471.22;5015217;28;877;-59
2021/07/02 23:20:32;;;;;;;;;;;;;;;20.18;63.88;101472.22;5015726;28;993;-59
2021/07/02 23:22:57;;;;;;;;;;;;;;;20.19;64.13;101481.19;5015651;28;988;-59
2021/07/02 23:25:22;;;;;;;;;;;;;;;20.18;63.40;101474.94;5015237;28;1695;-59
2021/07/02 23:27:47;;;;;;;;;;;;;;;20.17;63.77;101472.38;5015171;28;852;-59
2021/07/02 23:30:12;;;;;;;;;;;;;;;20.17;64.00;101462.38;5015382;28;1981;-59
2021/07/02 23:32:37;;;;;;;;;;;;;;;20.16;64.27;101466.09;5013470;28;2619;-59
2021/07/02 23:35:03;;;;;;;;;;;;;;;20.15;64.56;101468.94;5014729;28;1938;-59
2021/07/02 23:37:28;;;;;;;;;;;;;;;20.14;63.81;101476.22;5015045;28;893;-59
2021/07/02 23:39:53;;;;;;;;;;;;;;;20.14;64.26;101478.06;5015281;28;843;-59
2021/07/02 23:42:18;;;;;;;;;;;;;;;20.13;64.30;101477.22;5014973;28;925;-59
2021/07/02 23:44:43;;;;;;;;;;;;;;;20.13;64.33;101476.34;5014725;28;1771;-59
2021/07/02 23:47:09;;;;;;;;;;;;;;;20.12;63.61;101472.78;5015254;28;983;-59
2021/07/02 23:49:34;;;;;;;;;;;;;;;20.11;64.22;101468.38;5014932;28;847;-59